createdAt,value
2018-12-19T00:01:54.439Z,-1.00
2018-12-19T00:04:59.699Z,-1.00
2018-12-19T00:08:04.934Z,-1.00
2018-12-19T00:11:08.134Z,-1.00
2018-12-19T00:14:11.534Z,-1.00
2018-12-19T00:17:15.787Z,-1.00
2018-12-19T00:20:20.295Z,-1.00
2018-12-19T00:23:23.468Z,-1.00
2018-12-19T00:26:26.663Z,-1.00
2018-12-19T00:29:31.927Z,-1.00
2018-12-19T00:32:37.361Z,-1.00
2018-12-19T00:35:42.602Z,-1.00
2018-12-19T00:38:45.790Z,-1.00
2018-12-19T00:41:48.983Z,-1.00
2018-12-19T00:44:52.185Z,-1.00
2018-12-19T00:47:55.370Z,-1.10
2018-12-19T00:50:58.570Z,-1.00
2018-12-19T00:54:01.869Z,-1.10
2018-12-19T00:57:05.066Z,-1.20
2018-12-19T01:00:08.706Z,-1.20
2018-12-19T01:03:11.963Z,-1.20
2018-12-19T01:06:15.287Z,-1.10
2018-12-19T01:09:18.454Z,-1.20
2018-12-19T01:12:21.646Z,-1.20
2018-12-19T01:15:25.051Z,-1.20
2018-12-19T01:18:28.348Z,-1.20
2018-12-19T01:21:31.543Z,-1.20
2018-12-19T01:24:34.742Z,-1.30
2018-12-19T01:27:38.559Z,-1.30
2018-12-19T01:30:42.159Z,-1.40
2018-12-19T01:33:45.350Z,-1.40
2018-12-19T01:36:48.547Z,-1.40
2018-12-19T01:39:51.749Z,-1.40
2018-12-19T01:42:55.719Z,-1.50
2018-12-19T01:45:58.950Z,-1.60
2018-12-19T01:49:02.143Z,-1.60
2018-12-19T01:52:05.343Z,-1.60
2018-12-19T01:55:08.527Z,-1.70
2018-12-19T01:58:11.773Z,-1.60
2018-12-19T02:01:15.016Z,-1.60
2018-12-19T02:04:18.210Z,-1.70
2018-12-19T02:07:21.403Z,-1.60
2018-12-19T02:10:24.608Z,-1.60
2018-12-19T02:13:27.796Z,-1.60
2018-12-19T02:16:30.990Z,-1.70
2018-12-19T02:19:34.187Z,-1.70
2018-12-19T02:22:37.385Z,-1.70
2018-12-19T02:25:40.578Z,-1.70
2018-12-19T02:28:43.769Z,-1.70
2018-12-19T02:31:47.113Z,-1.80
2018-12-19T02:34:50.367Z,-1.90
2018-12-19T02:37:53.602Z,-1.90
2018-12-19T02:40:56.859Z,-1.90
2018-12-19T02:44:00.305Z,-2.00
2018-12-19T02:47:03.551Z,-2.00
2018-12-19T02:50:06.779Z,-2.00
2018-12-19T02:53:09.939Z,-2.00
2018-12-19T02:56:13.220Z,-2.00
2018-12-19T02:59:16.435Z,-2.00
2018-12-19T03:02:19.655Z,-1.90
2018-12-19T03:05:22.827Z,-1.90
2018-12-19T03:08:26.054Z,-1.90
2018-12-19T03:11:29.214Z,-1.90
2018-12-19T03:14:32.435Z,-1.90
2018-12-19T03:17:35.700Z,-2.00
2018-12-19T03:20:38.934Z,-2.00
2018-12-19T03:23:42.197Z,-2.10
2018-12-19T03:26:45.519Z,-2.00
2018-12-19T03:29:48.788Z,-2.10
2018-12-19T03:32:52.027Z,-2.20
2018-12-19T03:35:55.183Z,-2.20
2018-12-19T03:38:58.437Z,-2.30
2018-12-19T03:42:01.676Z,-2.30
2018-12-19T03:45:05.818Z,-2.40
2018-12-19T03:48:13.426Z,-2.40
2018-12-19T03:51:17.320Z,-2.40
2018-12-19T03:54:21.048Z,-2.50
2018-12-19T03:57:25.417Z,-2.40
2018-12-19T04:00:28.830Z,-2.50
2018-12-19T04:03:33.106Z,-2.40
2018-12-19T04:06:36.329Z,-2.50
2018-12-19T04:09:39.485Z,-2.50
2018-12-19T04:12:43.185Z,-2.50
2018-12-19T04:15:46.301Z,-2.50
2018-12-19T04:18:49.726Z,-2.50
2018-12-19T04:21:52.999Z,-2.50
2018-12-19T04:24:57.599Z,-2.50
2018-12-19T04:28:01.683Z,-2.50
2018-12-19T04:31:04.971Z,-2.40
2018-12-19T04:34:09.152Z,-2.40
2018-12-19T04:37:12.422Z,-2.30
2018-12-19T04:40:15.650Z,-2.20
2018-12-19T04:43:18.973Z,-2.20
2018-12-19T04:46:22.302Z,-2.10
2018-12-19T04:49:26.534Z,-2.00
2018-12-19T04:52:29.692Z,-1.90
2018-12-19T04:55:32.883Z,-1.80
2018-12-19T04:58:36.045Z,-1.70
2018-12-19T05:01:39.289Z,-1.70
2018-12-19T05:04:42.442Z,-1.70
2018-12-19T05:07:45.813Z,-1.60
2018-12-19T05:10:49.040Z,-1.60
2018-12-19T05:13:52.582Z,-1.50
2018-12-19T05:16:55.730Z,-1.50
2018-12-19T05:19:59.306Z,-1.40
2018-12-19T05:23:03.150Z,-1.40
2018-12-19T05:26:06.533Z,-1.40
2018-12-19T05:29:09.738Z,-1.40
2018-12-19T05:32:12.965Z,-1.40
2018-12-19T05:35:16.110Z,-1.30
2018-12-19T05:38:19.454Z,-1.30
2018-12-19T05:41:22.621Z,-1.20
2018-12-19T05:44:25.817Z,-1.20
2018-12-19T05:47:29.357Z,-1.30
2018-12-19T05:50:32.657Z,-1.30
2018-12-19T05:53:35.813Z,-1.30
2018-12-19T05:56:39.005Z,-1.10
2018-12-19T05:59:42.559Z,-1.00
2018-12-19T06:02:45.709Z,-0.90
2018-12-19T06:05:49.050Z,-0.70
2018-12-19T06:08:52.337Z,-0.70
2018-12-19T06:11:55.498Z,-0.60
2018-12-19T06:14:58.686Z,-0.50
2018-12-19T06:18:01.885Z,-0.50
2018-12-19T06:21:05.081Z,-0.50
2018-12-19T06:24:08.269Z,-0.50
2018-12-19T06:27:12.186Z,-0.40
2018-12-19T06:30:18.086Z,-0.40
2018-12-19T06:33:21.251Z,-0.40
2018-12-19T06:36:24.458Z,-0.30
2018-12-19T06:39:27.777Z,-0.30
2018-12-19T06:42:30.902Z,-0.30
2018-12-19T06:45:34.121Z,-0.30
2018-12-19T06:48:37.315Z,-0.30
2018-12-19T06:51:40.509Z,-0.30
2018-12-19T06:54:43.806Z,-0.20
2018-12-19T06:57:47.005Z,-0.30
2018-12-19T07:00:50.197Z,-0.30
2018-12-19T07:03:53.394Z,-0.30
2018-12-19T07:06:56.586Z,-0.30
2018-12-19T07:09:59.782Z,-0.20
2018-12-19T07:13:02.977Z,-0.20
2018-12-19T07:16:06.169Z,-0.30
2018-12-19T07:19:09.470Z,-0.30
2018-12-19T07:22:12.665Z,-0.20
2018-12-19T07:25:15.862Z,-0.20
2018-12-19T07:28:19.765Z,-0.20
2018-12-19T07:31:22.992Z,-0.30
2018-12-19T07:34:26.168Z,-0.30
2018-12-19T07:37:29.366Z,-0.30
2018-12-19T07:40:32.554Z,-0.30
2018-12-19T07:43:35.750Z,-0.30
2018-12-19T07:46:38.945Z,-0.20
2018-12-19T07:49:42.150Z,-0.30
2018-12-19T07:52:45.486Z,-0.30
2018-12-19T07:55:49.125Z,-0.30
2018-12-19T07:58:52.441Z,-0.20
2018-12-19T08:01:55.782Z,-0.20
2018-12-19T08:04:58.957Z,0.00
2018-12-19T08:08:02.158Z,-0.10
2018-12-19T08:11:05.326Z,0.00
2018-12-19T08:14:08.555Z,0.00
2018-12-19T08:17:11.698Z,0.10
2018-12-19T08:20:14.918Z,0.20
2018-12-19T08:23:18.101Z,0.30
2018-12-19T08:26:21.553Z,0.30
2018-12-19T08:29:24.698Z,0.30
2018-12-19T08:32:28.025Z,0.40
2018-12-19T08:35:31.194Z,0.40
2018-12-19T08:38:34.532Z,0.40
2018-12-19T08:41:39.370Z,0.50
2018-12-19T08:44:42.557Z,0.50
2018-12-19T08:47:45.725Z,0.50
2018-12-19T08:50:48.945Z,0.60
2018-12-19T08:53:52.087Z,0.60
2018-12-19T08:56:55.350Z,0.60
2018-12-19T08:59:58.497Z,0.70
2018-12-19T09:03:01.724Z,0.70
2018-12-19T09:06:04.885Z,0.70
2018-12-19T09:09:08.117Z,0.70
2018-12-19T09:12:11.280Z,0.70
2018-12-19T09:15:19.937Z,0.70
2018-12-19T09:18:23.294Z,0.70
2018-12-19T09:21:26.527Z,0.80
2018-12-19T09:24:29.691Z,0.80
2018-12-19T09:27:32.919Z,0.90
2018-12-19T09:30:36.282Z,0.90
2018-12-19T09:33:39.518Z,0.90
2018-12-19T09:36:42.693Z,0.90
2018-12-19T09:39:46.026Z,0.90
2018-12-19T09:42:49.167Z,1.00
2018-12-19T09:45:52.397Z,1.00
2018-12-19T09:48:55.591Z,1.00
2018-12-19T09:51:58.782Z,1.10
2018-12-19T09:55:01.942Z,1.00
2018-12-19T09:58:05.244Z,1.10
2018-12-19T10:01:08.967Z,1.10
2018-12-19T10:04:12.179Z,1.20
2018-12-19T10:07:15.584Z,1.20
2018-12-19T10:10:18.795Z,1.20
2018-12-19T10:13:23.043Z,1.30
2018-12-19T10:16:26.207Z,1.30
2018-12-19T10:19:29.436Z,1.30
2018-12-19T10:22:33.008Z,1.30
2018-12-19T10:25:36.239Z,1.40
2018-12-19T10:28:40.842Z,1.40
2018-12-19T10:31:44.263Z,1.50
2018-12-19T10:34:48.111Z,1.60
2018-12-19T10:37:51.952Z,1.50
2018-12-19T10:40:55.139Z,1.60
2018-12-19T10:43:58.722Z,1.70
2018-12-19T10:47:01.940Z,1.70
2018-12-19T10:50:08.338Z,1.80
2018-12-19T10:53:11.615Z,1.80
2018-12-19T10:56:14.923Z,2.00
2018-12-19T10:59:18.222Z,2.00
2018-12-19T11:02:23.638Z,2.10
2018-12-19T11:05:27.734Z,2.10
2018-12-19T11:08:31.103Z,2.00
2018-12-19T11:11:34.360Z,2.10
2018-12-19T11:14:37.591Z,2.20
2018-12-19T11:17:40.747Z,2.20
2018-12-19T11:20:44.136Z,2.10
2018-12-19T11:23:47.468Z,2.10
2018-12-19T11:26:51.155Z,2.20
2018-12-19T11:29:54.344Z,2.20
2018-12-19T11:32:58.379Z,2.20
2018-12-19T11:36:01.558Z,2.20
2018-12-19T11:39:07.170Z,2.30
2018-12-19T11:42:11.439Z,2.30
2018-12-19T11:45:14.754Z,2.40
2018-12-19T11:48:18.841Z,2.40
2018-12-19T11:51:22.031Z,2.40
2018-12-19T11:54:25.226Z,2.40
2018-12-19T11:57:28.577Z,2.50
2018-12-19T12:00:31.926Z,2.40
2018-12-19T12:03:35.283Z,2.40
2018-12-19T12:06:40.968Z,2.50
2018-12-19T12:09:44.303Z,2.50
2018-12-19T12:12:48.009Z,2.50
2018-12-19T12:15:51.384Z,2.50
2018-12-19T12:18:54.683Z,2.50
2018-12-19T12:21:58.104Z,2.60
2018-12-19T12:25:01.949Z,2.50
2018-12-19T12:28:05.192Z,2.50
2018-12-19T12:31:08.384Z,2.50
2018-12-19T12:34:12.191Z,2.50
2018-12-19T12:37:15.900Z,2.50
2018-12-19T12:40:19.308Z,2.60
2018-12-19T12:43:22.612Z,2.60
2018-12-19T12:46:25.888Z,2.60
2018-12-19T12:49:29.206Z,2.60
2018-12-19T12:52:32.387Z,2.60
2018-12-19T12:55:35.683Z,2.50
2018-12-19T12:58:38.867Z,2.60
2018-12-19T13:01:42.067Z,2.60
2018-12-19T13:04:45.275Z,2.60
2018-12-19T13:07:48.459Z,2.60
2018-12-19T13:10:53.063Z,2.60
2018-12-19T13:13:57.295Z,2.60
2018-12-19T13:17:00.498Z,2.50
2018-12-19T13:20:05.019Z,2.50
2018-12-19T13:23:08.221Z,2.60
2018-12-19T13:26:11.427Z,2.60
2018-12-19T13:29:14.613Z,2.60
2018-12-19T13:32:18.258Z,2.50
2018-12-19T13:35:21.505Z,2.50
2018-12-19T13:38:25.208Z,2.50
2018-12-19T13:41:28.406Z,2.50
2018-12-19T13:44:31.602Z,2.50
2018-12-19T13:47:34.894Z,2.50
2018-12-19T13:50:38.090Z,2.40
2018-12-19T13:53:41.289Z,2.40
2018-12-19T13:56:44.480Z,2.50
2018-12-19T13:59:47.656Z,2.50
2018-12-19T14:02:50.871Z,2.50
2018-12-19T14:05:54.066Z,2.50
2018-12-19T14:08:57.266Z,2.50
2018-12-19T14:12:00.455Z,2.50
2018-12-19T14:15:03.992Z,2.50
2018-12-19T14:18:07.153Z,2.50
2018-12-19T14:21:10.355Z,2.50
2018-12-19T14:24:13.543Z,2.50
2018-12-19T14:27:16.734Z,2.60
2018-12-19T14:30:19.932Z,2.50
2018-12-19T14:33:23.144Z,2.50
2018-12-19T14:36:26.348Z,2.50
2018-12-19T14:39:29.723Z,2.40
2018-12-19T14:42:33.462Z,2.50
2018-12-19T14:45:36.739Z,2.50
2018-12-19T14:48:40.249Z,2.30
2018-12-19T14:51:44.539Z,2.40
2018-12-19T14:54:47.872Z,2.40
2018-12-19T14:57:51.039Z,2.30
2018-12-19T15:00:54.278Z,2.30
2018-12-19T15:03:57.304Z,2.20
2018-12-19T15:07:00.443Z,2.20
2018-12-19T15:10:05.196Z,2.10
2018-12-19T15:13:08.731Z,2.10
2018-12-19T15:16:11.960Z,2.10
2018-12-19T15:19:15.548Z,2.10
2018-12-19T15:22:18.865Z,2.00
2018-12-19T15:25:22.194Z,2.00
2018-12-19T15:28:25.448Z,2.00
2018-12-19T15:31:28.671Z,2.10
2018-12-19T15:34:31.841Z,1.90
2018-12-19T15:37:35.180Z,2.00
2018-12-19T15:40:38.327Z,2.00
2018-12-19T15:43:41.615Z,2.00
2018-12-19T15:46:44.823Z,1.90
2018-12-19T15:49:48.458Z,1.90
2018-12-19T15:52:51.700Z,1.90
2018-12-19T15:55:55.332Z,2.00
2018-12-19T15:58:58.549Z,2.00
2018-12-19T16:02:02.480Z,2.00
2018-12-19T16:05:05.763Z,2.00
2018-12-19T16:08:08.985Z,2.00
2018-12-19T16:11:12.153Z,2.00
2018-12-19T16:14:15.378Z,2.00
2018-12-19T16:17:18.522Z,2.00
2018-12-19T16:20:21.750Z,1.90
2018-12-19T16:23:25.953Z,1.90
2018-12-19T16:26:29.186Z,1.90
2018-12-19T16:29:32.346Z,2.00
2018-12-19T16:32:35.570Z,1.90
2018-12-19T16:35:38.734Z,2.00
2018-12-19T16:38:41.966Z,2.00
2018-12-19T16:41:45.126Z,2.00
2018-12-19T16:44:48.355Z,2.10
2018-12-19T16:47:51.517Z,2.10
2018-12-19T16:50:54.747Z,2.00
2018-12-19T16:53:57.909Z,2.10
2018-12-19T16:57:01.134Z,2.10
2018-12-19T17:00:05.404Z,2.10
2018-12-19T17:03:08.971Z,2.10
2018-12-19T17:06:12.121Z,2.10
2018-12-19T17:09:16.170Z,2.10
2018-12-19T17:12:19.365Z,2.10
2018-12-19T17:15:22.599Z,2.10
2018-12-19T17:18:25.726Z,2.10
2018-12-19T17:21:28.931Z,2.10
2018-12-19T17:24:37.622Z,2.10
2018-12-19T17:27:40.882Z,2.10
2018-12-19T17:30:44.029Z,2.10
2018-12-19T17:33:47.253Z,2.20
2018-12-19T17:36:50.421Z,2.20
2018-12-19T17:39:53.659Z,2.20
2018-12-19T17:42:59.535Z,2.20
2018-12-19T17:46:02.189Z,2.20
2018-12-19T17:49:05.349Z,2.10
2018-12-19T17:52:08.589Z,2.10
2018-12-19T17:55:11.742Z,2.20
2018-12-19T17:58:14.964Z,2.30
2018-12-19T18:01:18.281Z,2.30
2018-12-19T18:04:21.554Z,2.30
2018-12-19T18:07:24.726Z,2.40
2018-12-19T18:10:27.954Z,2.40
2018-12-19T18:13:31.117Z,2.40
2018-12-19T18:16:34.346Z,2.30
2018-12-19T18:19:37.505Z,2.30
2018-12-19T18:22:40.734Z,2.30
2018-12-19T18:25:43.899Z,2.40
2018-12-19T18:28:47.241Z,2.40
2018-12-19T18:31:50.390Z,2.50
2018-12-19T18:34:53.629Z,2.50
2018-12-19T18:37:56.827Z,2.40
2018-12-19T18:41:00.429Z,2.40
2018-12-19T18:44:03.582Z,2.50
2018-12-19T18:47:06.818Z,2.40
2018-12-19T18:50:09.949Z,2.40
2018-12-19T18:53:13.307Z,2.40
2018-12-19T18:56:16.566Z,2.40
2018-12-19T18:59:19.761Z,2.40
2018-12-19T19:02:23.005Z,2.50
2018-12-19T19:05:26.271Z,2.40
2018-12-19T19:08:30.477Z,2.40
2018-12-19T19:11:33.666Z,2.40
2018-12-19T19:14:37.017Z,2.40
2018-12-19T19:17:40.162Z,2.40
2018-12-19T19:20:43.364Z,2.40
2018-12-19T19:23:46.552Z,2.50
2018-12-19T19:26:49.769Z,2.50
2018-12-19T19:29:52.940Z,2.50
2018-12-19T19:32:56.138Z,2.50
2018-12-19T19:35:59.333Z,2.50
2018-12-19T19:39:02.615Z,2.50
2018-12-19T19:42:07.149Z,2.50
2018-12-19T19:45:10.354Z,2.50
2018-12-19T19:48:14.058Z,2.50
2018-12-19T19:51:17.330Z,2.60
2018-12-19T19:54:20.858Z,2.60
2018-12-19T19:57:24.054Z,2.50
2018-12-19T20:00:31.453Z,2.50
2018-12-19T20:03:34.746Z,2.40
2018-12-19T20:06:38.607Z,2.50
2018-12-19T20:09:41.749Z,2.40
2018-12-19T20:12:44.942Z,2.40
2018-12-19T20:15:48.241Z,2.50
2018-12-19T20:18:51.417Z,2.50
2018-12-19T20:21:54.630Z,2.60
2018-12-19T20:24:57.826Z,2.70
2018-12-19T20:28:02.050Z,2.70
2018-12-19T20:31:05.243Z,2.60
2018-12-19T20:34:08.477Z,2.60
2018-12-19T20:37:11.629Z,2.60
2018-12-19T20:40:14.825Z,2.60
2018-12-19T20:43:18.021Z,2.60
2018-12-19T20:46:21.230Z,2.60
2018-12-19T20:49:24.412Z,2.60
2018-12-19T20:52:27.605Z,2.60
2018-12-19T20:55:30.873Z,2.50
2018-12-19T20:58:34.925Z,2.60
2018-12-19T21:01:38.129Z,2.50
2018-12-19T21:04:41.305Z,2.50
2018-12-19T21:07:44.511Z,2.50
2018-12-19T21:10:47.697Z,2.50
2018-12-19T21:13:50.902Z,2.50
2018-12-19T21:16:59.574Z,2.60
2018-12-19T21:20:03.227Z,2.50
2018-12-19T21:23:06.469Z,2.60
2018-12-19T21:26:09.613Z,2.60
2018-12-19T21:29:12.811Z,2.60
2018-12-19T21:32:16.005Z,2.60
2018-12-19T21:35:19.210Z,2.60
2018-12-19T21:38:22.397Z,2.60
2018-12-19T21:41:25.590Z,2.60
2018-12-19T21:44:28.761Z,2.60
2018-12-19T21:47:31.917Z,2.60
2018-12-19T21:50:35.160Z,2.60
2018-12-19T21:53:38.370Z,2.60
2018-12-19T21:56:42.045Z,2.60
2018-12-19T21:59:45.069Z,2.60
2018-12-19T22:02:48.237Z,2.50
2018-12-19T22:05:51.490Z,2.60
2018-12-19T22:08:54.621Z,2.70
2018-12-19T22:11:57.850Z,2.70
2018-12-19T22:15:01.071Z,2.70
2018-12-19T22:18:09.754Z,2.70
2018-12-19T22:21:12.979Z,2.70
2018-12-19T22:24:16.366Z,2.70
2018-12-19T22:27:20.159Z,2.80
2018-12-19T22:30:23.473Z,2.70
2018-12-19T22:33:27.234Z,2.70
2018-12-19T22:36:30.520Z,2.60
2018-12-19T22:39:33.918Z,2.60
2018-12-19T22:42:37.238Z,2.60
2018-12-19T22:45:40.550Z,2.60
2018-12-19T22:48:43.798Z,2.60
2018-12-19T22:51:47.043Z,2.60
2018-12-19T22:54:50.392Z,2.70
2018-12-19T22:57:53.725Z,2.70
2018-12-19T23:01:02.781Z,2.70
2018-12-19T23:04:07.444Z,2.60
2018-12-19T23:07:10.803Z,2.60
2018-12-19T23:10:14.000Z,2.70
2018-12-19T23:13:17.403Z,2.70
2018-12-19T23:16:22.736Z,2.70
2018-12-19T23:19:32.094Z,2.70
2018-12-19T23:22:42.197Z,2.80
2018-12-19T23:25:51.609Z,2.80
2018-12-19T23:29:02.799Z,2.80
2018-12-19T23:32:09.513Z,2.80
2018-12-19T23:35:12.838Z,2.80
2018-12-19T23:38:16.166Z,2.80
2018-12-19T23:41:19.415Z,2.80
2018-12-19T23:44:28.134Z,2.80
2018-12-19T23:47:31.341Z,2.80
2018-12-19T23:50:34.611Z,2.70
2018-12-19T23:53:37.938Z,2.70
2018-12-19T23:56:41.322Z,2.70
2018-12-19T23:59:44.542Z,2.70
